Time;durP1;ratioP1;P1;durP2;ratioP2;P2;SDS_P1;SDS_P2;PMS_P1;PMS_P2;Temp;Humidity;BMP_temperature;BMP_pressure;BME280_temperature;BME280_humidity;BME280_pressure;Samples;Min_cycle;Max_cycle;Signal;HPM_P1;HPM_P2
2022/01/10 00:00:08;;;;;;;8.60;5.37;;;;;;;;;;5165896;27;20525;-70
2022/01/10 00:02:36;;;;;;;9.00;5.13;;;;;;;;;;5165814;27;20487;-70
2022/01/10 00:05:05;;;;;;;7.03;5.03;;;;;;;;;;5165800;27;20523;-70
2022/01/10 00:07:33;;;;;;;7.53;5.40;;;;;;;;;;5164968;27;20468;-70
2022/01/10 00:10:02;;;;;;;10.27;6.83;;;;;;;;;;5150630;27;20450;-70
2022/01/10 00:12:31;;;;;;;10.87;7.37;;;;;;;;;;5141421;27;20460;-70
2022/01/10 00:14:59;;;;;;;10.97;7.87;;;;;;;;;;5141720;27;20442;-70
2022/01/10 00:17:27;;;;;;;13.27;8.60;;;;;;;;;;5141230;27;20472;-70
2022/01/10 00:19:55;;;;;;;14.57;9.07;;;;;;;;;;5141377;27;20446;-70
2022/01/10 00:22:25;;;;;;;15.33;8.70;;;;;;;;;;5141402;27;20477;-70
2022/01/10 00:24:53;;;;;;;11.80;8.37;;;;;;;;;;5141651;27;20444;-70
2022/01/10 00:27:21;;;;;;;13.70;8.60;;;;;;;;;;5141042;27;20461;-69
2022/01/10 00:29:50;;;;;;;13.17;8.93;;;;;;;;;;5152671;27;20456;-70
2022/01/10 00:32:18;;;;;;;15.43;9.07;;;;;;;;;;5140920;27;20948;-70
2022/01/10 00:34:46;;;;;;;14.03;10.10;;;;;;;;;;5141073;27;20524;-69
2022/01/10 00:37:14;;;;;;;14.90;10.30;;;;;;;;;;5140819;27;20830;-70
2022/01/10 00:39:42;;;;;;;15.83;10.17;;;;;;;;;;5141387;27;20448;-70
2022/01/10 00:42:10;;;;;;;15.63;10.53;;;;;;;;;;5140967;27;20473;-69
2022/01/10 00:44:44;;;;;;;16.40;11.03;;;;;;;;;;5141275;27;20438;-70
2022/01/10 00:47:14;;;;;;;18.70;11.90;;;;;;;;;;5140797;27;20801;-70
2022/01/10 00:49:42;;;;;;;21.43;12.00;;;;;;;;;;5153707;27;20478;-70
2022/01/10 00:52:10;;;;;;;24.27;12.57;;;;;;;;;;5161766;27;20447;-69
2022/01/10 00:54:38;;;;;;;22.80;12.83;;;;;;;;;;5161809;27;20452;-69
2022/01/10 00:57:07;;;;;;;21.93;12.83;;;;;;;;;;5139746;27;20464;-70
2022/01/10 00:59:35;;;;;;;19.80;13.27;;;;;;;;;;5154031;27;20787;-70
2022/01/10 01:02:03;;;;;;;24.90;14.70;;;;;;;;;;5140371;27;20484;-70
2022/01/10 01:04:33;;;;;;;18.43;13.07;;;;;;;;;;5140617;27;20528;-69
2022/01/10 01:07:01;;;;;;;17.83;13.63;;;;;;;;;;5140342;27;20457;-70
2022/01/10 01:09:30;;;;;;;19.33;12.53;;;;;;;;;;5152453;27;20814;-69
2022/01/10 01:12:14;;;;;;;22.57;13.10;;;;;;;;;;5140497;27;20441;-69
2022/01/10 01:14:55;;;;;;;21.20;13.63;;;;;;;;;;5140250;27;20446;-69
2022/01/10 01:17:35;;;;;;;22.13;13.47;;;;;;;;;;5140097;27;20471;-70
2022/01/10 01:20:27;;;;;;;19.23;12.70;;;;;;;;;;5140369;27;20450;-70
2022/01/10 01:25:41;;;;;;;21.03;13.43;;;;;;;;;;5140036;27;20440;-70
2022/01/10 01:28:09;;;;;;;18.40;12.77;;;;;;;;;;5147318;27;20449;-69
2022/01/10 01:30:37;;;;;;;23.93;13.30;;;;;;;;;;5159811;27;20805;-70
2022/01/10 01:33:05;;;;;;;18.17;12.77;;;;;;;;;;5140672;27;20438;-70
2022/01/10 01:35:35;;;;;;;20.23;13.23;;;;;;;;;;5139765;27;20429;-70
2022/01/10 01:38:03;;;;;;;21.57;13.23;;;;;;;;;;5140071;27;20453;-70
2022/01/10 01:40:33;;;;;;;17.33;12.70;;;;;;;;;;5139964;27;20553;-70
2022/01/10 01:43:01;;;;;;;23.27;13.03;;;;;;;;;;5139650;27;20485;-70
2022/01/10 01:45:39;;;;;;;21.60;12.97;;;;;;;;;;5139723;27;20805;-70
2022/01/10 01:48:07;;;;;;;18.13;12.47;;;;;;;;;;5139308;27;20469;-70
2022/01/10 01:50:36;;;;;;;23.27;11.87;;;;;;;;;;5155632;27;21014;-70
2022/01/10 01:53:04;;;;;;;17.57;10.63;;;;;;;;;;5160244;27;20437;-70
2022/01/10 01:55:33;;;;;;;20.23;12.17;;;;;;;;;;5153736;27;20441;-70
2022/01/10 01:58:01;;;;;;;20.67;13.67;;;;;;;;;;5148074;27;20452;-70
2022/01/10 02:00:29;;;;;;;15.83;11.30;;;;;;;;;;5155458;27;21012;-69
2022/01/10 02:02:57;;;;;;;18.57;12.93;;;;;;;;;;5139148;27;20481;-71
2022/01/10 02:05:25;;;;;;;21.10;12.63;;;;;;;;;;5139367;27;20817;-70
2022/01/10 02:07:54;;;;;;;19.87;11.67;;;;;;;;;;5139320;27;20472;-69
2022/01/10 02:10:23;;;;;;;17.13;11.57;;;;;;;;;;5139497;27;20448;-70
2022/01/10 02:12:51;;;;;;;20.97;12.07;;;;;;;;;;5138809;27;20448;-69
2022/01/10 02:15:31;;;;;;;21.27;12.57;;;;;;;;;;5139164;27;20440;-69
2022/01/10 02:18:00;;;;;;;17.87;11.13;;;;;;;;;;5139165;27;20450;-70
2022/01/10 02:20:30;;;;;;;22.03;13.23;;;;;;;;;;5121058;27;20459;-69
2022/01/10 02:22:58;;;;;;;14.67;10.63;;;;;;;;;;5129720;27;20473;-69
2022/01/10 02:25:26;;;;;;;19.27;12.20;;;;;;;;;;5141780;27;21008;-65
2022/01/10 02:27:55;;;;;;;23.17;13.53;;;;;;;;;;5141908;27;20554;-65
2022/01/10 02:30:22;;;;;;;18.63;11.43;;;;;;;;;;5138580;27;20438;-65
2022/01/10 02:32:50;;;;;;;20.30;13.10;;;;;;;;;;5138052;27;20438;-65
2022/01/10 02:35:19;;;;;;;18.40;11.80;;;;;;;;;;5138952;27;20438;-65
2022/01/10 02:37:51;;;;;;;15.80;10.90;;;;;;;;;;5138409;27;20487;-65
2022/01/10 02:40:21;;;;;;;17.70;10.80;;;;;;;;;;5137179;27;20442;-65
2022/01/10 02:42:49;;;;;;;19.83;11.93;;;;;;;;;;5143223;27;20442;-65
2022/01/10 02:45:18;;;;;;;14.67;11.57;;;;;;;;;;5137123;27;20450;-65
2022/01/10 02:47:47;;;;;;;13.47;9.87;;;;;;;;;;5142355;27;20473;-65
2022/01/10 02:50:16;;;;;;;14.00;9.93;;;;;;;;;;5138671;27;20452;-65
2022/01/10 02:52:44;;;;;;;15.77;10.50;;;;;;;;;;5138639;27;20533;-65
2022/01/10 02:55:13;;;;;;;13.80;10.63;;;;;;;;;;5138468;28;20974;-65
2022/01/10 02:57:41;;;;;;;13.17;10.37;;;;;;;;;;5136866;28;20474;-66
2022/01/10 03:00:10;;;;;;;13.50;10.33;;;;;;;;;;5138433;28;20442;-65
2022/01/10 03:02:38;;;;;;;14.17;10.17;;;;;;;;;;5138187;28;20450;-65
2022/01/10 03:05:07;;;;;;;17.97;10.73;;;;;;;;;;5138635;28;20481;-65
2022/01/10 03:07:35;;;;;;;19.40;10.30;;;;;;;;;;5138158;28;20469;-65
2022/01/10 03:10:04;;;;;;;16.27;9.90;;;;;;;;;;5138215;28;20801;-65
2022/01/10 03:12:36;;;;;;;12.70;8.93;;;;;;;;;;5137133;28;21003;-65
2022/01/10 03:15:07;;;;;;;12.43;9.47;;;;;;;;;;5147286;27;20456;-65
2022/01/10 03:17:35;;;;;;;15.07;10.27;;;;;;;;;;5137995;28;20469;-65
2022/01/10 03:20:03;;;;;;;13.83;8.90;;;;;;;;;;5138303;28;20460;-65
2022/01/10 03:22:31;;;;;;;12.50;9.23;;;;;;;;;;5137881;28;20441;-65
2022/01/10 03:24:59;;;;;;;18.47;9.07;;;;;;;;;;5150203;27;20477;-65
2022/01/10 03:27:28;;;;;;;16.07;10.00;;;;;;;;;;5157421;27;20456;-70
2022/01/10 03:29:57;;;;;;;14.40;9.43;;;;;;;;;;5150792;27;20442;-69
2022/01/10 03:32:25;;;;;;;10.83;8.07;;;;;;;;;;5138425;28;20452;-70
2022/01/10 03:34:53;;;;;;;11.83;7.90;;;;;;;;;;5138319;28;20443;-70
2022/01/10 03:37:21;;;;;;;11.33;8.20;;;;;;;;;;5138278;28;20468;-70
2022/01/10 03:39:49;;;;;;;10.67;8.27;;;;;;;;;;5138545;28;20450;-69
2022/01/10 03:42:17;;;;;;;11.97;9.17;;;;;;;;;;5137862;28;20452;-70
2022/01/10 03:44:45;;;;;;;14.50;8.90;;;;;;;;;;5139812;27;20483;-69
2022/01/10 03:47:17;;;;;;;11.33;7.93;;;;;;;;;;5142158;27;20465;-69
2022/01/10 03:49:45;;;;;;;16.80;8.33;;;;;;;;;;5153612;27;20480;-69
2022/01/10 03:52:13;;;;;;;13.03;8.77;;;;;;;;;;5162633;27;20931;-69
2022/01/10 03:54:41;;;;;;;11.50;7.67;;;;;;;;;;5162569;27;20441;-69
2022/01/10 03:57:10;;;;;;;11.43;8.83;;;;;;;;;;5147798;27;20493;-69
2022/01/10 03:59:38;;;;;;;12.10;8.43;;;;;;;;;;5142927;27;20456;-70
2022/01/10 04:02:06;;;;;;;11.83;9.07;;;;;;;;;;5141889;27;20437;-70
2022/01/10 04:04:37;;;;;;;10.43;7.77;;;;;;;;;;5141396;27;20531;-69
2022/01/10 04:07:06;;;;;;;12.27;8.27;;;;;;;;;;5141815;27;20510;-69
2022/01/10 04:09:34;;;;;;;14.30;8.97;;;;;;;;;;5141815;27;20441;-69
2022/01/10 04:12:02;;;;;;;10.40;7.07;;;;;;;;;;5141295;27;20422;-69
2022/01/10 04:14:30;;;;;;;12.40;7.60;;;;;;;;;;5141688;27;20445;-69
2022/01/10 04:16:58;;;;;;;10.97;7.87;;;;;;;;;;5141380;27;20462;-70
2022/01/10 04:19:26;;;;;;;12.67;7.27;;;;;;;;;;5141559;27;20458;-69
2022/01/10 04:21:55;;;;;;;11.07;7.53;;;;;;;;;;5141379;27;20434;-69
2022/01/10 04:24:23;;;;;;;9.73;7.07;;;;;;;;;;5141558;27;20487;-69
2022/01/10 04:26:51;;;;;;;10.90;7.33;;;;;;;;;;5141295;27;20462;-70
2022/01/10 04:29:19;;;;;;;11.60;8.13;;;;;;;;;;5153758;27;20450;-69
2022/01/10 04:31:47;;;;;;;15.27;8.10;;;;;;;;;;5141113;27;20448;-70
2022/01/10 04:34:16;;;;;;;9.87;7.30;;;;;;;;;;5140927;27;20817;-69
2022/01/10 04:36:44;;;;;;;12.33;7.93;;;;;;;;;;5141142;27;20468;-70
2022/01/10 04:39:13;;;;;;;9.37;7.17;;;;;;;;;;5140974;27;20517;-70
2022/01/10 04:41:41;;;;;;;13.53;7.57;;;;;;;;;;5141015;27;20438;-70
2022/01/10 04:44:09;;;;;;;12.07;8.70;;;;;;;;;;5140889;27;20482;-69
2022/01/10 04:46:37;;;;;;;18.67;8.83;;;;;;;;;;5140481;27;20461;-70
2022/01/10 04:49:09;;;;;;;13.37;8.83;;;;;;;;;;5148958;27;20468;-69
2022/01/10 04:51:39;;;;;;;14.97;9.00;;;;;;;;;;5161655;27;20468;-70
2022/01/10 04:54:07;;;;;;;15.83;8.60;;;;;;;;;;5161799;27;20437;-70
2022/01/10 04:56:36;;;;;;;13.80;8.63;;;;;;;;;;5148194;27;20460;-69
2022/01/10 04:59:04;;;;;;;10.53;7.33;;;;;;;;;;5157177;27;20450;-70
2022/01/10 05:01:32;;;;;;;14.90;8.93;;;;;;;;;;5140869;27;20438;-70
2022/01/10 05:04:00;;;;;;;13.70;8.47;;;;;;;;;;5140427;27;20470;-70
2022/01/10 05:06:28;;;;;;;13.20;8.30;;;;;;;;;;5140665;27;20462;-70
2022/01/10 05:08:56;;;;;;;14.07;9.30;;;;;;;;;;5140350;27;20804;-70
2022/01/10 05:11:24;;;;;;;11.83;7.97;;;;;;;;;;5140525;27;20442;-70
2022/01/10 05:13:53;;;;;;;11.27;7.50;;;;;;;;;;5140122;27;20452;-70
2022/01/10 05:16:22;;;;;;;13.67;8.30;;;;;;;;;;5140429;27;20468;-69
2022/01/10 05:18:50;;;;;;;12.70;7.43;;;;;;;;;;5140214;27;20483;-70
2022/01/10 05:21:20;;;;;;;10.93;6.63;;;;;;;;;;5140387;27;20442;-70
2022/01/10 05:23:48;;;;;;;12.07;7.20;;;;;;;;;;5139799;27;20459;-70
2022/01/10 05:26:16;;;;;;;10.00;7.37;;;;;;;;;;5139803;27;20983;-70
2022/01/10 05:28:44;;;;;;;12.83;8.63;;;;;;;;;;5137623;27;20439;-70
2022/01/10 05:31:13;;;;;;;9.50;6.27;;;;;;;;;;5123147;27;20722;-70
2022/01/10 05:33:45;;;;;;;10.00;6.47;;;;;;;;;;5123449;27;20197;-70
2022/01/10 05:36:13;;;;;;;12.70;6.50;;;;;;;;;;5121235;27;20459;-70
2022/01/10 05:38:41;;;;;;;11.60;6.87;;;;;;;;;;5119914;27;20443;-69
2022/01/10 05:41:09;;;;;;;11.13;6.73;;;;;;;;;;5125241;27;20198;-69
2022/01/10 05:43:38;;;;;;;10.00;6.00;;;;;;;;;;5135485;27;20450;-70
2022/01/10 05:46:08;;;;;;;7.40;5.77;;;;;;;;;;5140907;27;20522;-69
2022/01/10 05:48:40;;;;;;;11.63;5.50;;;;;;;;;;5137282;27;20256;-69
2022/01/10 05:51:08;;;;;;;13.27;6.03;;;;;;;;;;5134846;27;20437;-70
2022/01/10 05:53:36;;;;;;;8.10;5.90;;;;;;;;;;5138124;27;20438;-69
2022/01/10 05:56:04;;;;;;;8.23;6.13;;;;;;;;;;5139102;27;20224;-70
2022/01/10 05:58:34;;;;;;;8.73;6.07;;;;;;;;;;5139862;27;20798;-70
2022/01/10 06:01:02;;;;;;;7.53;6.17;;;;;;;;;;5138329;27;20206;-69
2022/01/10 06:03:30;;;;;;;8.73;6.53;;;;;;;;;;5134640;27;20204;-70
2022/01/10 06:05:59;;;;;;;8.00;5.33;;;;;;;;;;5137872;27;20224;-69
2022/01/10 06:08:28;;;;;;;9.73;5.27;;;;;;;;;;5138417;27;20212;-69
2022/01/10 06:10:56;;;;;;;9.07;5.40;;;;;;;;;;5138434;27;20196;-69
2022/01/10 06:13:24;;;;;;;7.30;4.70;;;;;;;;;;5138104;27;20211;-69
2022/01/10 06:15:52;;;;;;;7.20;5.50;;;;;;;;;;5139988;27;20216;-69
2022/01/10 06:18:20;;;;;;;7.30;5.20;;;;;;;;;;5138751;27;20434;-69
2022/01/10 06:20:48;;;;;;;9.27;5.77;;;;;;;;;;5142140;27;20465;-69
2022/01/10 06:23:18;;;;;;;9.60;5.07;;;;;;;;;;5144357;27;20803;-70
2022/01/10 06:25:46;;;;;;;8.23;5.60;;;;;;;;;;5141067;27;20476;-70
2022/01/10 06:28:14;;;;;;;9.37;5.77;;;;;;;;;;5138548;27;20772;-69
2022/01/10 06:30:42;;;;;;;8.43;5.20;;;;;;;;;;5138863;27;20467;-70
2022/01/10 06:33:10;;;;;;;8.67;5.33;;;;;;;;;;5138777;27;20509;-69
2022/01/10 06:35:38;;;;;;;7.57;5.30;;;;;;;;;;5138674;27;20439;-69
2022/01/10 06:38:06;;;;;;;9.33;5.40;;;;;;;;;;5138822;27;20460;-69
2022/01/10 06:40:36;;;;;;;9.47;5.33;;;;;;;;;;5138454;27;20936;-70
2022/01/10 06:43:05;;;;;;;9.67;5.57;;;;;;;;;;5138626;27;20450;-70
2022/01/10 06:45:34;;;;;;;8.27;5.40;;;;;;;;;;5151229;27;20480;-70
2022/01/10 06:48:02;;;;;;;12.37;5.20;;;;;;;;;;5138419;27;20466;-70
2022/01/10 06:50:30;;;;;;;6.93;4.13;;;;;;;;;;5141044;27;20454;-70
2022/01/10 06:52:58;;;;;;;7.30;5.20;;;;;;;;;;5132235;27;20204;-68
2022/01/10 06:55:25;;;;;;;7.17;4.47;;;;;;;;;;5128639;27;20434;-68
2022/01/10 06:57:55;;;;;;;5.93;4.00;;;;;;;;;;5133380;27;20462;-68
2022/01/10 07:00:23;;;;;;;6.27;4.17;;;;;;;;;;5132667;27;20428;-67
2022/01/10 07:02:51;;;;;;;4.80;3.90;;;;;;;;;;5137298;27;20959;-66
2022/01/10 07:05:19;;;;;;;6.40;4.03;;;;;;;;;;5142932;27;20483;-71
2022/01/10 07:07:47;;;;;;;9.43;4.53;;;;;;;;;;5138300;28;20462;-73
2022/01/10 07:10:15;;;;;;;5.33;4.17;;;;;;;;;;5138397;28;20456;-72
2022/01/10 07:12:43;;;;;;;7.40;5.10;;;;;;;;;;5137918;28;20446;-72
2022/01/10 07:15:13;;;;;;;6.40;4.63;;;;;;;;;;5138433;27;20461;-73
2022/01/10 07:17:40;;;;;;;4.97;4.20;;;;;;;;;;5134608;27;20458;-73
2022/01/10 07:20:09;;;;;;;5.67;4.20;;;;;;;;;;5150121;27;20448;-73
2022/01/10 07:22:40;;;;;;;4.80;3.40;;;;;;;;;;5147344;27;20460;-74
2022/01/10 07:25:08;;;;;;;3.57;2.97;;;;;;;;;;5140435;27;20944;-74
2022/01/10 07:27:36;;;;;;;4.27;3.27;;;;;;;;;;5156086;27;20471;-75
2022/01/10 07:30:05;;;;;;;3.23;2.93;;;;;;;;;;5131634;27;20457;-75
2022/01/10 07:32:34;;;;;;;4.10;3.47;;;;;;;;;;5139837;27;20452;-74
2022/01/10 07:35:02;;;;;;;2.93;2.73;;;;;;;;;;5140073;27;20450;-74
2022/01/10 07:37:30;;;;;;;3.43;2.47;;;;;;;;;;5140399;27;20473;-74
2022/01/10 07:39:58;;;;;;;3.93;2.97;;;;;;;;;;5141814;27;20454;-74
2022/01/10 07:42:27;;;;;;;3.70;2.37;;;;;;;;;;5150818;27;20471;-75
2022/01/10 07:44:55;;;;;;;3.23;2.80;;;;;;;;;;5162857;27;20448;-74
2022/01/10 07:47:23;;;;;;;3.53;2.53;;;;;;;;;;5159854;27;20492;-75
2022/01/10 07:49:52;;;;;;;3.63;2.90;;;;;;;;;;5100488;28;20443;-74
2022/01/10 07:52:22;;;;;;;3.17;2.23;;;;;;;;;;5099533;28;20508;-74
2022/01/10 07:54:50;;;;;;;6.30;2.77;;;;;;;;;;5100577;28;20451;-74
2022/01/10 07:57:18;;;;;;;2.60;2.20;;;;;;;;;;5104664;28;20513;-75
2022/01/10 07:59:47;;;;;;;4.13;2.50;;;;;;;;;;5100490;28;20538;-74
2022/01/10 08:02:16;;;;;;;4.33;2.80;;;;;;;;;;5107342;28;20495;-75
2022/01/10 08:04:44;;;;;;;2.33;2.13;;;;;;;;;;5120724;28;20869;-75
2022/01/10 08:07:14;;;;;;;2.77;2.50;;;;;;;;;;5089969;28;20534;-74
2022/01/10 08:09:42;;;;;;;4.77;2.40;;;;;;;;;;5100662;28;20497;-74
2022/01/10 08:12:11;;;;;;;3.00;2.70;;;;;;;;;;5100009;28;20439;-75
2022/01/10 08:14:39;;;;;;;3.27;2.97;;;;;;;;;;5100313;28;20432;-75
2022/01/10 08:17:07;;;;;;;7.33;2.50;;;;;;;;;;5100574;28;20464;-75
2022/01/10 08:19:35;;;;;;;7.90;2.27;;;;;;;;;;5100337;28;20444;-75
2022/01/10 08:22:04;;;;;;;4.70;2.93;;;;;;;;;;5100294;28;20454;-74
2022/01/10 08:24:34;;;;;;;3.80;2.90;;;;;;;;;;5099961;28;20468;-74
2022/01/10 08:27:02;;;;;;;7.33;2.27;;;;;;;;;;5099791;28;20491;-74
2022/01/10 08:29:30;;;;;;;6.63;3.33;;;;;;;;;;5099572;28;20579;-74
2022/01/10 08:31:58;;;;;;;5.43;2.90;;;;;;;;;;5099673;28;20475;-75
2022/01/10 08:34:27;;;;;;;6.10;3.30;;;;;;;;;;5099505;28;20440;-75
2022/01/10 08:36:56;;;;;;;5.50;2.73;;;;;;;;;;5098635;28;20460;-75
2022/01/10 08:39:24;;;;;;;6.37;2.27;;;;;;;;;;5099931;28;20519;-75
2022/01/10 08:41:53;;;;;;;4.00;2.97;;;;;;;;;;5098853;28;20531;-75
2022/01/10 08:44:22;;;;;;;4.87;2.30;;;;;;;;;;5099883;28;20530;-75
2022/01/10 08:46:50;;;;;;;3.03;2.30;;;;;;;;;;5099491;28;20538;-75
2022/01/10 08:49:18;;;;;;;2.73;2.10;;;;;;;;;;5142079;27;20469;-75
2022/01/10 08:51:49;;;;;;;3.13;2.23;;;;;;;;;;5161286;27;20886;-75
2022/01/10 08:54:17;;;;;;;2.43;2.23;;;;;;;;;;5161356;27;20441;-75
2022/01/10 08:56:45;;;;;;;4.00;3.33;;;;;;;;;;5143641;27;20489;-75
2022/01/10 08:59:15;;;;;;;2.87;1.73;;;;;;;;;;5140142;27;20446;-71
2022/01/10 09:01:43;;;;;;;3.13;2.50;;;;;;;;;;5135989;27;20446;-74
2022/01/10 09:04:15;;;;;;;3.50;2.20;;;;;;;;;;5140351;27;20470;-75
2022/01/10 09:06:45;;;;;;;3.47;2.33;;;;;;;;;;5139853;27;21063;-74
2022/01/10 09:09:13;;;;;;;3.10;2.27;;;;;;;;;;5126638;27;20526;-75
2022/01/10 09:11:42;;;;;;;4.30;2.60;;;;;;;;;;5126950;27;20450;-75
2022/01/10 09:14:11;;;;;;;2.27;2.00;;;;;;;;;;5140316;27;20452;-74
2022/01/10 09:16:41;;;;;;;3.03;2.67;;;;;;;;;;5139895;27;20462;-75
2022/01/10 09:19:09;;;;;;;3.97;3.10;;;;;;;;;;5139967;27;20491;-74
2022/01/10 09:21:37;;;;;;;5.33;2.57;;;;;;;;;;5140063;27;20437;-74
2022/01/10 09:24:06;;;;;;;2.67;2.40;;;;;;;;;;5139911;27;20529;-75
2022/01/10 09:26:34;;;;;;;2.37;2.13;;;;;;;;;;5139706;27;20598;-75
2022/01/10 09:29:02;;;;;;;3.23;2.40;;;;;;;;;;5139574;27;20437;-75
2022/01/10 09:31:31;;;;;;;2.97;2.40;;;;;;;;;;5138813;27;20454;-75
2022/01/10 09:34:02;;;;;;;2.87;1.80;;;;;;;;;;5139722;27;20441;-75
2022/01/10 09:36:31;;;;;;;6.90;2.37;;;;;;;;;;5139461;27;20495;-75
2022/01/10 09:38:59;;;;;;;2.83;1.70;;;;;;;;;;5139952;27;20476;-75
2022/01/10 09:41:27;;;;;;;2.60;1.40;;;;;;;;;;5139643;27;20460;-75
2022/01/10 09:43:57;;;;;;;4.00;2.10;;;;;;;;;;5127385;27;20519;-75
2022/01/10 09:46:25;;;;;;;5.77;2.70;;;;;;;;;;5125582;27;20461;-75
2022/01/10 09:48:54;;;;;;;3.20;1.63;;;;;;;;;;5153331;27;20469;-75
2022/01/10 09:51:26;;;;;;;3.97;2.00;;;;;;;;;;5160411;27;20456;-75
2022/01/10 09:53:55;;;;;;;3.33;2.43;;;;;;;;;;5159979;27;20493;-75
2022/01/10 09:56:24;;;;;;;6.17;2.23;;;;;;;;;;5146179;27;20490;-75
2022/01/10 09:58:53;;;;;;;4.70;2.27;;;;;;;;;;5138834;27;20848;-74
2022/01/10 10:01:21;;;;;;;5.47;2.07;;;;;;;;;;5139997;27;20438;-76
2022/01/10 10:03:50;;;;;;;1.67;1.57;;;;;;;;;;5144862;27;20438;-75
2022/01/10 10:06:19;;;;;;;3.10;2.20;;;;;;;;;;5148240;27;20540;-75
2022/01/10 10:08:48;;;;;;;3.63;1.97;;;;;;;;;;5142261;27;20534;-75
2022/01/10 10:11:17;;;;;;;4.20;2.20;;;;;;;;;;5139345;27;20473;-75
2022/01/10 10:13:51;;;;;;;2.30;2.00;;;;;;;;;;5137899;27;20928;-75
2022/01/10 10:16:19;;;;;;;3.43;1.70;;;;;;;;;;5138842;27;20490;-75
2022/01/10 10:18:48;;;;;;;3.10;1.60;;;;;;;;;;5138687;27;20518;-76
2022/01/10 10:21:17;;;;;;;3.90;2.40;;;;;;;;;;5138644;27;20473;-75
2022/01/10 10:23:48;;;;;;;2.70;1.80;;;;;;;;;;5138579;27;20853;-75
2022/01/10 10:26:20;;;;;;;2.40;2.00;;;;;;;;;;5138951;27;20457;-75
2022/01/10 10:28:48;;;;;;;2.40;2.17;;;;;;;;;;5138585;27;20481;-75
2022/01/10 10:31:24;;;;;;;2.30;1.80;;;;;;;;;;5138536;27;20442;-76
2022/01/10 10:33:53;;;;;;;5.37;1.83;;;;;;;;;;5138586;27;20480;-75
2022/01/10 10:36:21;;;;;;;2.83;1.73;;;;;;;;;;5138661;27;20542;-76
2022/01/10 10:38:49;;;;;;;2.20;1.83;;;;;;;;;;5138289;27;20430;-76
2022/01/10 10:41:19;;;;;;;1.73;1.37;;;;;;;;;;5138718;27;20446;-76
2022/01/10 10:43:50;;;;;;;4.37;1.93;;;;;;;;;;5137363;27;20813;-75
2022/01/10 10:46:19;;;;;;;2.50;1.60;;;;;;;;;;5138628;27;20465;-75
2022/01/10 10:48:50;;;;;;;4.80;2.00;;;;;;;;;;5149538;27;20571;-75
2022/01/10 10:51:18;;;;;;;3.43;2.03;;;;;;;;;;5159142;27;20445;-75
2022/01/10 10:53:47;;;;;;;1.67;1.57;;;;;;;;;;5158930;27;20449;-75
2022/01/10 10:56:15;;;;;;;1.63;1.53;;;;;;;;;;5146362;27;20462;-75
2022/01/10 10:58:45;;;;;;;3.43;1.73;;;;;;;;;;5136607;27;20444;-75
2022/01/10 11:01:12;;;;;;;2.23;1.60;;;;;;;;;;5143041;27;20912;-75
2022/01/10 11:03:41;;;;;;;5.53;1.50;;;;;;;;;;5146381;27;20467;-76
2022/01/10 11:06:10;;;;;;;7.20;2.00;;;;;;;;;;5143423;27;20460;-76
2022/01/10 11:08:40;;;;;;;2.70;1.63;;;;;;;;;;5138000;28;20548;-76
2022/01/10 11:11:08;;;;;;;2.20;1.70;;;;;;;;;;5138082;28;20533;-74
2022/01/10 11:13:38;;;;;;;3.90;1.57;;;;;;;;;;5129171;27;20447;-75
2022/01/10 11:16:08;;;;;;;2.30;1.30;;;;;;;;;;5133596;28;20458;-75
2022/01/10 11:18:38;;;;;;;1.67;1.50;;;;;;;;;;5137947;28;20494;-76
2022/01/10 11:21:06;;;;;;;2.07;1.30;;;;;;;;;;5138327;28;20444;-76
2022/01/10 11:23:39;;;;;;;1.57;1.47;;;;;;;;;;5138248;28;20449;-77
2022/01/10 11:26:08;;;;;;;1.97;1.57;;;;;;;;;;5133486;28;20925;-76
2022/01/10 11:28:39;;;;;;;2.83;1.63;;;;;;;;;;5137699;28;20473;-77
2022/01/10 11:31:09;;;;;;;2.53;1.60;;;;;;;;;;5137905;28;20534;-77
2022/01/10 11:33:42;;;;;;;3.50;1.70;;;;;;;;;;5138063;28;20446;-77
2022/01/10 11:36:10;;;;;;;2.73;1.50;;;;;;;;;;5137875;28;20967;-76
2022/01/10 11:38:40;;;;;;;1.67;1.43;;;;;;;;;;5137990;28;20438;-75
2022/01/10 11:41:09;;;;;;;2.87;1.30;;;;;;;;;;5149327;27;20449;-75
2022/01/10 11:43:41;;;;;;;3.00;1.50;;;;;;;;;;5139283;27;20444;-75
2022/01/10 11:46:19;;;;;;;5.10;1.90;;;;;;;;;;5150402;27;20492;-75
2022/01/10 11:48:49;;;;;;;2.90;1.43;;;;;;;;;;5143231;27;20835;-75
2022/01/10 11:51:18;;;;;;;1.60;1.47;;;;;;;;;;5157926;27;20440;-75
2022/01/10 11:53:47;;;;;;;1.43;1.20;;;;;;;;;;5158474;27;20433;-76
2022/01/10 11:56:23;;;;;;;3.33;0.93;;;;;;;;;;5146045;27;20462;-75
2022/01/10 11:59:08;;;;;;;1.57;1.47;;;;;;;;;;5137614;28;20470;-76
2022/01/10 12:01:39;;;;;;;2.50;1.20;;;;;;;;;;5137745;28;20787;-75
2022/01/10 12:04:08;;;;;;;2.63;1.10;;;;;;;;;;5137834;27;20477;-75
2022/01/10 12:06:38;;;;;;;1.63;1.40;;;;;;;;;;5139728;27;20887;-75
2022/01/10 12:09:07;;;;;;;1.40;1.10;;;;;;;;;;5141176;27;20488;-75
2022/01/10 12:11:37;;;;;;;2.53;1.40;;;;;;;;;;5141216;27;20999;-75
2022/01/10 12:14:06;;;;;;;4.67;1.30;;;;;;;;;;5141800;27;20462;-75
2022/01/10 12:16:36;;;;;;;1.50;1.37;;;;;;;;;;5141703;27;20465;-75
2022/01/10 12:19:07;;;;;;;2.87;1.83;;;;;;;;;;5137468;27;20529;-74
2022/01/10 12:21:35;;;;;;;3.20;1.37;;;;;;;;;;5139340;27;20478;-78
2022/01/10 12:24:04;;;;;;;1.53;1.10;;;;;;;;;;5140652;27;20506;-78
2022/01/10 12:26:32;;;;;;;2.00;1.43;;;;;;;;;;5141566;27;20464;-78
2022/01/10 12:29:01;;;;;;;2.33;1.20;;;;;;;;;;5142525;27;20477;-78
2022/01/10 12:31:30;;;;;;;3.63;1.30;;;;;;;;;;5138277;27;20444;-77
2022/01/10 12:33:59;;;;;;;2.23;1.17;;;;;;;;;;5141665;27;20800;-77
2022/01/10 12:36:32;;;;;;;1.63;1.53;;;;;;;;;;5138273;27;20479;-78
2022/01/10 12:39:01;;;;;;;1.73;1.47;;;;;;;;;;5141536;27;20442;-76
2022/01/10 12:41:29;;;;;;;0.93;0.93;;;;;;;;;;5139197;27;20468;-76
2022/01/10 12:43:57;;;;;;;3.93;1.77;;;;;;;;;;5142733;27;20947;-75
2022/01/10 12:46:30;;;;;;;1.50;1.10;;;;;;;;;;5140280;27;20964;-78
2022/01/10 12:49:01;;;;;;;4.07;1.70;;;;;;;;;;5141654;27;20481;-79
2022/01/10 12:51:33;;;;;;;1.47;1.37;;;;;;;;;;5160203;27;20528;-79
2022/01/10 12:54:05;;;;;;;2.87;1.50;;;;;;;;;;5161331;27;20448;-78
2022/01/10 12:56:33;;;;;;;1.57;1.47;;;;;;;;;;5145303;27;20454;-78
2022/01/10 12:59:01;;;;;;;0.97;0.87;;;;;;;;;;5140432;27;20212;-78
2022/01/10 13:01:29;;;;;;;3.17;1.40;;;;;;;;;;5140375;27;20873;-78
2022/01/10 13:03:59;;;;;;;3.40;1.27;;;;;;;;;;5140310;27;20200;-77
2022/01/10 13:06:28;;;;;;;1.13;0.93;;;;;;;;;;5127627;27;20606;-78
2022/01/10 13:08:56;;;;;;;1.40;1.27;;;;;;;;;;5136185;27;20234;-79
2022/01/10 13:11:33;;;;;;;2.13;1.10;;;;;;;;;;5140169;27;20442;-79
2022/01/10 13:14:08;;;;;;;1.83;1.47;;;;;;;;;;5139957;27;20875;-78
2022/01/10 13:16:36;;;;;;;1.50;1.40;;;;;;;;;;5139877;27;20500;-79
2022/01/10 13:19:06;;;;;;;3.33;1.53;;;;;;;;;;5136066;27;20450;-76
2022/01/10 13:21:37;;;;;;;2.60;1.83;;;;;;;;;;5137848;27;20426;-76
2022/01/10 13:24:10;;;;;;;3.20;1.23;;;;;;;;;;5138645;27;20438;-77
2022/01/10 13:26:52;;;;;;;1.60;1.50;;;;;;;;;;5135892;27;20465;-76
2022/01/10 13:29:35;;;;;;;1.47;1.30;;;;;;;;;;5135821;27;20478;-76
2022/01/10 13:32:18;;;;;;;4.20;1.93;;;;;;;;;;5134717;27;20448;-76
2022/01/10 13:34:47;;;;;;;3.83;1.27;;;;;;;;;;5136077;27;20468;-77
2022/01/10 13:37:16;;;;;;;1.53;1.33;;;;;;;;;;5139576;27;20458;-76
2022/01/10 13:39:44;;;;;;;3.00;1.40;;;;;;;;;;5139502;27;20446;-75
2022/01/10 13:42:12;;;;;;;2.60;1.40;;;;;;;;;;5160057;27;20445;-76
2022/01/10 13:44:50;;;;;;;3.07;1.30;;;;;;;;;;5160176;27;20445;-76
2022/01/10 13:47:21;;;;;;;3.40;1.27;;;;;;;;;;5153850;27;20470;-77
2022/01/10 13:49:49;;;;;;;4.80;1.40;;;;;;;;;;5152565;27;20504;-76
2022/01/10 13:52:18;;;;;;;1.97;1.33;;;;;;;;;;5160414;27;20227;-76
2022/01/10 13:54:47;;;;;;;1.90;1.67;;;;;;;;;;5160269;27;20487;-76
2022/01/10 13:57:18;;;;;;;3.03;1.50;;;;;;;;;;5133843;27;20285;-77
2022/01/10 13:59:46;;;;;;;1.93;1.20;;;;;;;;;;5139498;27;20196;-76
2022/01/10 14:02:16;;;;;;;3.93;1.23;;;;;;;;;;5139204;27;20253;-76
2022/01/10 14:04:48;;;;;;;2.20;1.30;;;;;;;;;;5140116;27;20212;-76
2022/01/10 14:07:18;;;;;;;3.50;1.10;;;;;;;;;;5159754;27;20246;-76
2022/01/10 14:09:46;;;;;;;2.47;1.60;;;;;;;;;;5159768;27;20227;-76
2022/01/10 14:12:18;;;;;;;4.93;1.40;;;;;;;;;;5159656;27;20207;-76
2022/01/10 14:14:46;;;;;;;3.83;1.33;;;;;;;;;;5159879;27;20218;-76
2022/01/10 14:17:15;;;;;;;2.00;0.90;;;;;;;;;;5150440;27;20221;-76
2022/01/10 14:19:44;;;;;;;1.20;1.10;;;;;;;;;;5130563;27;20474;-76
2022/01/10 14:22:13;;;;;;;4.87;1.33;;;;;;;;;;5138908;27;20670;-76
2022/01/10 14:24:42;;;;;;;3.17;1.20;;;;;;;;;;5139052;27;20313;-75
2022/01/10 14:27:10;;;;;;;1.83;1.50;;;;;;;;;;5138578;27;20263;-76
2022/01/10 14:29:38;;;;;;;2.03;1.07;;;;;;;;;;5137920;27;20550;-76
2022/01/10 14:32:08;;;;;;;1.77;1.30;;;;;;;;;;5138511;27;20510;-76
2022/01/10 14:34:36;;;;;;;2.80;1.10;;;;;;;;;;5138525;27;20211;-76
2022/01/10 14:37:05;;;;;;;1.50;1.10;;;;;;;;;;5138771;27;20465;-76
2022/01/10 14:39:34;;;;;;;2.07;1.30;;;;;;;;;;5138553;27;20207;-76
2022/01/10 14:42:03;;;;;;;2.70;1.40;;;;;;;;;;5138400;27;20261;-75
2022/01/10 14:44:31;;;;;;;3.53;1.10;;;;;;;;;;5138802;27;20208;-75
2022/01/10 14:46:59;;;;;;;1.93;1.53;;;;;;;;;;5136143;27;20541;-76
2022/01/10 14:49:29;;;;;;;2.17;1.43;;;;;;;;;;5137277;27;20530;-76